Time;durP1;ratioP1;P1;durP2;ratioP2;P2;SDS_P1;SDS_P2;PMS_P1;PMS_P2;Temp;Humidity;BMP_temperature;BMP_pressure;BME280_temperature;BME280_humidity;BME280_pressure;Samples;Min_cycle;Max_cycle;Signal;HPM_P1;HPM_P2
2022/09/24 00:01:24;;;;;;;34.28;30.83;;;14.40;99.90;;;;;;5041242;28;20037;-62
2022/09/24 00:04:02;;;;;;;33.00;29.60;;;14.40;99.90;;;;;;5054722;28;20047;-61
2022/09/24 00:06:32;;;;;;;35.58;31.90;;;14.40;99.90;;;;;;5054337;28;20041;-62
2022/09/24 00:08:57;;;;;;;35.22;31.48;;;14.40;99.90;;;;;;5054749;28;20033;-62
2022/09/24 00:11:26;;;;;;;34.55;30.88;;;14.40;99.90;;;;;;5054038;28;20056;-61
2022/09/24 00:13:52;;;;;;;36.17;32.45;;;14.40;99.90;;;;;;5054656;28;20366;-62
2022/09/24 00:16:20;;;;;;;33.65;30.27;;;14.40;99.90;;;;;;5054077;28;20368;-62
2022/09/24 00:18:46;;;;;;;36.08;32.28;;;14.40;99.90;;;;;;5054657;28;20044;-61
2022/09/24 00:21:20;;;;;;;34.92;31.25;;;14.40;99.90;;;;;;5054491;28;20048;-62
2022/09/24 00:23:51;;;;;;;35.33;31.67;;;14.30;99.90;;;;;;5054431;28;20045;-61
2022/09/24 00:29:02;;;;;;;38.35;33.92;;;14.30;99.90;;;;;;5040655;28;20068;-62
2022/09/24 00:31:27;;;;;;;36.85;32.47;;;14.30;99.90;;;;;;5054138;28;20048;-62
2022/09/24 00:33:53;;;;;;;37.30;33.30;;;14.20;99.90;;;;;;5053813;28;20037;-61
2022/09/24 00:36:21;;;;;;;36.53;32.58;;;14.30;99.90;;;;;;5053712;28;20159;-62
2022/09/24 00:38:51;;;;;;;37.10;33.33;;;14.30;99.90;;;;;;5053661;28;20052;-61
2022/09/24 00:41:23;;;;;;;35.97;32.13;;;14.20;99.90;;;;;;5053569;28;20128;-62
2022/09/24 00:43:49;;;;;;;35.97;32.30;;;14.20;99.90;;;;;;5053472;28;20381;-62
2022/09/24 00:46:37;;;;;;;37.22;33.13;;;14.20;99.90;;;;;;5053321;28;20029;-62
2022/09/24 00:49:10;;;;;;;37.92;33.88;;;14.20;99.90;;;;;;5053636;28;20416;-61
2022/09/24 00:51:38;;;;;;;36.92;33.05;;;14.20;99.90;;;;;;5053840;28;20037;-62
2022/09/24 00:54:08;;;;;;;36.63;32.42;;;14.20;99.90;;;;;;5053684;28;20041;-61
2022/09/24 00:56:37;;;;;;;36.55;32.55;;;14.20;99.90;;;;;;5053424;28;20041;-61
2022/09/24 00:59:05;;;;;;;38.30;34.30;;;14.20;99.90;;;;;;5053673;28;20418;-62
2022/09/24 01:01:31;;;;;;;36.08;32.38;;;14.20;99.90;;;;;;5053611;28;20055;-61
2022/09/24 01:03:58;;;;;;;36.58;32.78;;;14.20;99.90;;;;;;5053345;28;20521;-62
2022/09/24 01:06:24;;;;;;;37.40;33.47;;;14.20;99.90;;;;;;5053324;28;20040;-61
2022/09/24 01:08:51;;;;;;;35.95;32.13;;;14.20;99.90;;;;;;5052937;28;20076;-62
2022/09/24 01:11:44;;;;;;;35.10;31.45;;;14.20;99.90;;;;;;5052192;28;20045;-62
2022/09/24 01:14:10;;;;;;;37.72;33.70;;;14.20;99.90;;;;;;5053338;28;20155;-63
2022/09/24 01:16:54;;;;;;;37.50;33.47;;;14.20;99.90;;;;;;5052665;28;20040;-62
2022/09/24 01:19:57;;;;;;;38.72;34.30;;;14.20;99.90;;;;;;5053404;28;20037;-62
2022/09/24 01:22:51;;;;;;;38.50;34.47;;;14.20;99.90;;;;;;5052611;28;20060;-62
2022/09/24 01:25:58;;;;;;;38.50;34.13;;;14.10;99.90;;;;;;5053314;28;20116;-61
2022/09/24 01:28:36;;;;;;;39.13;35.00;;;14.10;99.90;;;;;;5052507;28;20489;-61
2022/09/24 01:31:15;;;;;;;39.08;35.03;;;14.10;99.90;;;;;;5052495;28;20056;-62
2022/09/24 01:33:43;;;;;;;40.97;36.25;;;14.10;99.90;;;;;;5052841;28;20094;-62
2022/09/24 01:36:09;;;;;;;38.88;34.53;;;14.10;99.90;;;;;;5052386;28;20171;-62
2022/09/24 01:38:40;;;;;;;38.88;34.25;;;14.10;99.90;;;;;;5051674;28;20540;-62
2022/09/24 01:41:09;;;;;;;39.38;35.05;;;14.10;99.90;;;;;;5052681;28;20438;-61
2022/09/24 01:43:35;;;;;;;39.65;35.45;;;14.00;99.90;;;;;;5052618;28;20547;-62
2022/09/24 01:46:05;;;;;;;39.15;34.90;;;14.00;99.90;;;;;;5052512;28;20157;-62
2022/09/24 01:48:36;;;;;;;37.95;33.95;;;14.10;99.90;;;;;;5052739;28;20029;-62
2022/09/24 01:51:25;;;;;;;41.05;35.40;;;14.10;99.90;;;;;;5052568;28;20045;-62
2022/09/24 01:53:59;;;;;;;40.17;35.45;;;14.00;99.90;;;;;;5052588;28;20041;-61
2022/09/24 01:56:40;;;;;;;;;;;14.00;99.90;;;;;;5053075;28;20037;-62
2022/09/24 01:59:24;;;;;;;40.75;35.03;;;14.00;99.90;;;;;;5052490;28;20549;-62
2022/09/24 02:02:03;;;;;;;39.88;35.53;;;13.90;99.90;;;;;;5050706;28;20041;-62
2022/09/24 02:04:30;;;;;;;42.40;37.53;;;13.90;99.90;;;;;;5052036;28;20044;-63
2022/09/24 02:07:23;;;;;;;41.63;37.10;;;13.80;99.90;;;;;;5052337;28;20064;-61
2022/09/24 02:09:49;;;;;;;42.08;37.55;;;13.90;99.90;;;;;;5051540;28;20071;-61
2022/09/24 02:12:28;;;;;;;45.55;40.63;;;13.90;99.90;;;;;;5052208;28;20362;-61
2022/09/24 02:15:07;;;;;;;43.00;38.38;;;13.90;99.90;;;;;;5052224;28;20060;-62
2022/09/24 02:17:36;;;;;;;44.03;39.22;;;13.90;99.90;;;;;;5052142;28;20110;-62
2022/09/24 02:20:07;;;;;;;41.33;36.60;;;13.90;99.90;;;;;;5051878;28;20047;-62
2022/09/24 02:22:33;;;;;;;43.40;38.70;;;13.90;99.90;;;;;;5067540;28;20497;-62
2022/09/24 02:25:02;;;;;;;45.17;39.95;;;13.80;99.90;;;;;;5052044;28;20041;-62
2022/09/24 02:27:28;;;;;;;42.70;38.08;;;13.90;99.90;;;;;;5051650;28;20335;-62
2022/09/24 02:29:58;;;;;;;42.80;37.33;;;13.90;99.90;;;;;;5052158;28;20052;-62
2022/09/24 02:32:31;;;;;;;43.58;37.95;;;13.90;99.90;;;;;;5051717;28;20116;-62
2022/09/24 02:35:00;;;;;;;40.80;36.47;;;13.80;99.90;;;;;;5051958;28;20187;-62
2022/09/24 02:37:26;;;;;;;42.25;37.40;;;13.90;99.90;;;;;;5050785;28;20041;-62
2022/09/24 02:39:52;;;;;;;41.72;37.05;;;13.90;99.90;;;;;;5051886;28;20109;-62
2022/09/24 02:42:19;;;;;;;41.33;36.85;;;13.80;99.90;;;;;;5051631;28;20041;-63
2022/09/24 02:44:46;;;;;;;41.83;36.38;;;13.80;99.90;;;;;;5052109;28;20499;-62
2022/09/24 02:47:12;;;;;;;40.78;36.33;;;13.90;99.90;;;;;;5051650;28;20273;-62
2022/09/24 02:49:37;;;;;;;40.53;36.17;;;13.90;99.90;;;;;;5051875;28;20044;-62
2022/09/24 02:52:03;;;;;;;40.00;35.47;;;13.90;99.90;;;;;;5051152;28;20037;-62
2022/09/24 02:54:30;;;;;;;40.90;36.42;;;13.80;99.90;;;;;;5051729;28;20120;-62
2022/09/24 02:56:56;;;;;;;46.17;36.95;;;13.90;99.90;;;;;;5051179;28;20037;-59
2022/09/24 02:59:21;;;;;;;44.47;37.72;;;13.90;99.90;;;;;;5051352;28;20029;-62
2022/09/24 03:01:47;;;;;;;45.63;38.95;;;13.80;99.90;;;;;;5051342;28;20313;-62
2022/09/24 03:04:13;;;;;;;42.45;37.33;;;13.80;99.90;;;;;;5051471;28;20044;-62
2022/09/24 03:06:38;;;;;;;43.22;37.08;;;13.90;99.90;;;;;;5050905;28;20071;-62
2022/09/24 03:09:04;;;;;;;43.58;37.78;;;13.90;99.90;;;;;;5051016;28;20041;-62
2022/09/24 03:11:30;;;;;;;42.40;37.85;;;13.90;99.90;;;;;;5050851;28;20049;-63
2022/09/24 03:13:56;;;;;;;42.67;38.13;;;13.90;99.90;;;;;;5051164;28;20370;-62
2022/09/24 03:16:22;;;;;;;42.45;37.88;;;13.80;99.90;;;;;;5050788;28;20045;-62
2022/09/24 03:18:47;;;;;;;44.05;38.13;;;13.80;99.90;;;;;;5050192;28;20067;-62
2022/09/24 03:21:15;;;;;;;43.05;38.47;;;13.80;99.90;;;;;;5050756;28;20087;-62
2022/09/24 03:23:41;;;;;;;42.30;37.78;;;13.80;99.90;;;;;;5051176;28;20052;-63
2022/09/24 03:26:07;;;;;;;42.20;36.78;;;13.80;99.90;;;;;;5051198;28;20041;-62
2022/09/24 03:28:33;;;;;;;43.58;38.28;;;13.80;99.90;;;;;;5051402;28;20457;-62
2022/09/24 03:30:59;;;;;;;42.80;36.90;;;13.80;99.90;;;;;;5051155;28;20037;-59
2022/09/24 03:33:29;;;;;;;41.88;37.22;;;13.80;99.90;;;;;;5055109;28;20037;-61
2022/09/24 03:35:59;;;;;;;44.03;38.42;;;13.80;99.90;;;;;;5055000;28;20041;-60
2022/09/24 03:38:25;;;;;;;42.30;37.72;;;13.80;99.90;;;;;;5055208;28;20429;-61
2022/09/24 03:40:51;;;;;;;45.13;39.83;;;13.80;99.90;;;;;;5054782;28;20124;-62
2022/09/24 03:43:16;;;;;;;43.47;38.58;;;13.80;99.90;;;;;;5054149;28;20045;-62
2022/09/24 03:45:42;;;;;;;44.78;38.58;;;13.80;99.90;;;;;;5053760;28;20090;-63
2022/09/24 03:48:07;;;;;;;44.70;39.85;;;13.80;99.90;;;;;;5055109;28;20048;-61
2022/09/24 03:50:37;;;;;;;48.83;40.00;;;13.80;99.90;;;;;;5054601;28;20041;-63
2022/09/24 03:53:03;;;;;;;42.35;37.75;;;13.80;99.90;;;;;;5054338;28;20112;-62
2022/09/24 03:55:29;;;;;;;44.55;39.22;;;13.80;99.90;;;;;;5054753;28;20044;-61
2022/09/24 03:57:54;;;;;;;43.92;39.10;;;13.80;99.90;;;;;;5054840;28;20029;-63
2022/09/24 04:00:22;;;;;;;44.20;38.70;;;13.80;99.90;;;;;;5054599;28;20378;-62
2022/09/24 04:02:48;;;;;;;44.00;39.13;;;13.80;99.90;;;;;;5054471;28;20040;-61
2022/09/24 04:05:14;;;;;;;43.17;38.42;;;13.80;99.90;;;;;;5054975;28;20033;-62
2022/09/24 04:07:40;;;;;;;43.53;38.80;;;13.80;99.90;;;;;;5054723;28;20037;-62
2022/09/24 04:10:07;;;;;;;42.10;37.63;;;13.80;99.90;;;;;;5054529;28;20258;-62
2022/09/24 04:12:33;;;;;;;41.10;36.53;;;13.80;99.90;;;;;;5054159;28;20056;-62
2022/09/24 04:15:01;;;;;;;43.03;37.75;;;13.80;99.90;;;;;;5069551;28;20036;-61
2022/09/24 04:17:30;;;;;;;41.53;36.42;;;13.80;99.90;;;;;;5052578;28;20051;-62
2022/09/24 04:19:57;;;;;;;43.38;38.08;;;13.80;99.90;;;;;;5053004;28;20143;-61
2022/09/24 04:22:23;;;;;;;40.97;36.38;;;13.90;99.90;;;;;;5054147;28;20063;-61
2022/09/24 04:24:50;;;;;;;40.97;36.67;;;13.90;99.90;;;;;;5053416;28;20041;-61
2022/09/24 04:27:15;;;;;;;41.92;37.45;;;13.90;99.90;;;;;;5053889;28;20052;-61
2022/09/24 04:29:41;;;;;;;42.83;37.88;;;13.90;99.90;;;;;;5054593;28;20049;-62
2022/09/24 04:32:07;;;;;;;43.42;38.70;;;13.90;99.90;;;;;;5054163;28;20029;-61
2022/09/24 04:34:32;;;;;;;41.95;37.65;;;13.80;99.90;;;;;;5054131;28;20438;-62
2022/09/24 04:36:58;;;;;;;46.58;40.88;;;13.80;99.90;;;;;;5053691;28;20040;-61
2022/09/24 04:39:26;;;;;;;44.75;39.95;;;13.80;99.90;;;;;;5054281;28;20445;-61
2022/09/24 04:41:52;;;;;;;47.42;42.30;;;13.90;99.90;;;;;;5053987;28;20139;-61
2022/09/24 04:44:18;;;;;;;46.17;41.28;;;13.80;99.90;;;;;;5052766;28;20045;-62
2022/09/24 04:46:44;;;;;;;47.10;42.15;;;13.80;99.90;;;;;;5053975;28;20469;-62
2022/09/24 04:49:10;;;;;;;52.63;46.72;;;13.90;99.90;;;;;;5054114;28;20045;-62
2022/09/24 04:51:36;;;;;;;50.10;44.75;;;13.80;99.90;;;;;;5053826;28;20056;-63
2022/09/24 04:54:02;;;;;;;50.60;45.30;;;13.80;99.90;;;;;;5053491;28;20036;-61
2022/09/24 04:56:29;;;;;;;51.65;46.15;;;13.80;99.90;;;;;;5035776;28;20037;-61
2022/09/24 04:58:56;;;;;;;51.90;46.22;;;13.80;99.90;;;;;;5053574;28;20060;-61
2022/09/24 05:01:22;;;;;;;51.22;45.63;;;13.80;99.90;;;;;;5053447;28;20033;-61
2022/09/24 05:03:48;;;;;;;53.05;45.47;;;13.80;99.90;;;;;;5053524;28;20410;-61
2022/09/24 05:06:13;;;;;;;50.63;45.22;;;13.80;99.90;;;;;;5053430;28;20048;-62
2022/09/24 05:08:39;;;;;;;50.97;45.38;;;13.80;99.90;;;;;;5052731;28;20154;-62
2022/09/24 05:11:05;;;;;;;48.95;43.80;;;13.80;99.90;;;;;;5052776;28;20386;-61
2022/09/24 05:13:31;;;;;;;43.95;39.35;;;13.90;99.90;;;;;;5053446;28;20068;-62
2022/09/24 05:15:56;;;;;;;48.85;41.78;;;13.80;99.90;;;;;;5052785;28;20051;-62
2022/09/24 05:18:22;;;;;;;44.20;39.63;;;13.90;99.90;;;;;;5052002;28;20047;-61
2022/09/24 05:20:48;;;;;;;44.05;39.22;;;13.80;99.90;;;;;;5052843;28;20051;-61
2022/09/24 05:23:13;;;;;;;45.58;40.67;;;13.90;99.90;;;;;;5053574;28;20457;-61
2022/09/24 05:28:23;;;;;;;41.72;37.22;;;13.90;99.90;;;;;;5051277;28;20044;-62
2022/09/24 05:30:49;;;;;;;42.30;37.28;;;13.90;99.90;;;;;;5052716;28;20051;-62
2022/09/24 05:33:14;;;;;;;39.75;35.45;;;13.80;99.90;;;;;;5051195;28;20127;-62
2022/09/24 05:35:40;;;;;;;38.83;34.72;;;13.80;99.90;;;;;;5052295;28;20059;-63
2022/09/24 05:38:06;;;;;;;38.58;34.45;;;13.80;99.90;;;;;;5068293;28;20103;-62
2022/09/24 05:40:46;;;;;;;38.28;34.28;;;13.90;99.90;;;;;;5053064;28;20069;-62
2022/09/24 05:43:12;;;;;;;39.80;34.78;;;13.90;99.90;;;;;;5051923;28;20049;-62
2022/09/24 05:45:38;;;;;;;37.42;33.40;;;13.90;99.90;;;;;;5051629;28;20323;-62
2022/09/24 05:48:04;;;;;;;37.13;33.20;;;13.90;99.90;;;;;;5053057;28;20052;-62
2022/09/24 05:50:33;;;;;;;35.88;32.13;;;13.80;99.90;;;;;;5052539;28;20060;-62
2022/09/24 05:53:03;;;;;;;33.22;29.63;;;13.80;99.90;;;;;;5052182;28;20102;-62
2022/09/24 05:55:32;;;;;;;32.67;29.15;;;13.80;99.90;;;;;;5050800;28;20037;-62
2022/09/24 05:58:09;;;;;;;32.53;27.45;;;13.80;99.90;;;;;;5049176;28;20446;-62
2022/09/24 06:00:35;;;;;;;30.38;27.08;;;13.80;99.90;;;;;;5050624;28;20458;-62
2022/09/24 06:03:09;;;;;;;29.92;26.63;;;13.80;99.90;;;;;;5050783;28;20102;-63
2022/09/24 06:05:35;;;;;;;31.13;26.65;;;13.90;99.90;;;;;;5047959;28;20056;-63
2022/09/24 06:08:02;;;;;;;29.15;26.02;;;13.90;99.90;;;;;;5047883;28;20037;-64
2022/09/24 06:10:28;;;;;;;28.67;25.58;;;13.90;99.90;;;;;;5050623;28;20466;-62
2022/09/24 06:12:55;;;;;;;28.33;25.33;;;13.90;99.90;;;;;;5046416;28;20044;-62
2022/09/24 06:15:21;;;;;;;28.95;25.88;;;13.90;99.90;;;;;;5020261;28;20107;-62
2022/09/24 06:17:46;;;;;;;28.13;25.13;;;14.00;99.90;;;;;;5042223;28;20041;-62
2022/09/24 06:20:12;;;;;;;27.50;24.60;;;14.00;99.90;;;;;;5037880;28;20040;-62
2022/09/24 06:22:38;;;;;;;26.73;23.70;;;14.00;99.90;;;;;;5049818;28;20098;-62
2022/09/24 06:25:05;;;;;;;27.10;24.20;;;14.00;99.90;;;;;;5049180;28;20041;-63
2022/09/24 06:27:31;;;;;;;26.10;23.38;;;14.00;99.90;;;;;;5045208;28;20475;-62
2022/09/24 06:29:56;;;;;;;27.10;23.15;;;14.10;99.90;;;;;;5043608;28;20049;-63
2022/09/24 06:32:23;;;;;;;26.10;23.15;;;14.00;99.90;;;;;;5043795;28;20037;-61
2022/09/24 06:34:49;;;;;;;25.17;22.63;;;14.10;99.90;;;;;;5049085;28;20033;-61
2022/09/24 06:37:15;;;;;;;26.88;23.98;;;14.00;99.90;;;;;;5044948;28;20038;-61
2022/09/24 06:39:41;;;;;;;25.83;22.88;;;14.10;99.90;;;;;;5047878;28;20041;-61
2022/09/24 06:42:07;;;;;;;26.23;23.35;;;14.10;99.90;;;;;;5050407;28;20171;-61
2022/09/24 06:44:33;;;;;;;23.60;21.10;;;14.10;99.90;;;;;;5051301;28;20529;-60
2022/09/24 06:47:00;;;;;;;25.60;22.80;;;14.10;99.90;;;;;;5050132;28;20115;-61
2022/09/24 06:49:25;;;;;;;24.58;21.58;;;14.10;99.90;;;;;;5050605;28;20047;-60
2022/09/24 06:51:53;;;;;;;26.00;22.42;;;14.10;99.90;;;;;;5050132;28;20458;-61
2022/09/24 06:54:19;;;;;;;26.90;23.63;;;14.10;99.90;;;;;;5049615;28;20101;-60
2022/09/24 06:56:46;;;;;;;24.13;21.63;;;14.00;99.90;;;;;;5047967;28;20091;-60
2022/09/24 06:59:12;;;;;;;24.25;21.70;;;14.10;99.90;;;;;;5051318;28;20033;-60
2022/09/24 07:01:37;;;;;;;25.52;22.33;;;14.00;99.90;;;;;;5051178;28;20084;-60
2022/09/24 07:04:03;;;;;;;26.60;23.05;;;14.10;99.90;;;;;;5051347;28;20094;-60
2022/09/24 07:07:28;;;;;;;28.25;23.65;;;14.10;99.90;;;;;;5050754;28;20068;-61
2022/09/24 07:09:14;;;;;;;25.20;22.48;;;14.00;99.90;;;;;;5049521;28;20103;-61
2022/09/24 07:11:40;;;;;;;29.35;25.02;;;14.00;99.90;;;;;;5051038;28;20641;-60
2022/09/24 07:14:06;;;;;;;26.27;23.27;;;14.00;99.90;;;;;;5051102;28;20033;-61
2022/09/24 07:16:32;;;;;;;25.15;21.98;;;14.10;99.90;;;;;;5050510;28;20045;-60
2022/09/24 07:18:57;;;;;;;24.80;21.75;;;14.00;99.90;;;;;;5051000;28;20077;-60
2022/09/24 07:21:23;;;;;;;23.15;20.67;;;14.10;99.90;;;;;;5050628;28;20055;-60
2022/09/24 07:23:49;;;;;;;19.65;17.60;;;14.10;99.90;;;;;;5050244;28;20115;-61
2022/09/24 07:26:14;;;;;;;21.27;18.35;;;14.10;99.90;;;;;;5050475;28;20044;-61
2022/09/24 07:28:40;;;;;;;17.13;15.32;;;14.10;99.90;;;;;;5050146;28;20048;-61
2022/09/24 07:31:05;;;;;;;19.17;16.33;;;14.10;99.90;;;;;;5050713;28;20489;-61
2022/09/24 07:33:31;;;;;;;12.45;11.15;;;14.10;99.90;;;;;;5050851;28;20442;-60
2022/09/24 07:35:56;;;;;;;13.20;9.63;;;14.10;99.90;;;;;;5050610;28;20082;-62
2022/09/24 07:38:22;;;;;;;8.82;6.55;;;14.10;99.90;;;;;;5050843;28;20362;-61
2022/09/24 07:40:48;;;;;;;10.15;7.38;;;14.20;99.90;;;;;;5051001;28;20044;-61
2022/09/24 07:43:13;;;;;;;9.95;8.23;;;14.20;99.90;;;;;;5049962;28;20394;-61
2022/09/24 07:45:41;;;;;;;10.15;7.45;;;14.20;99.90;;;;;;5050775;28;20040;-61
2022/09/24 07:48:08;;;;;;;10.60;8.15;;;14.20;99.90;;;;;;5051220;28;20120;-61
2022/09/24 07:50:38;;;;;;;10.73;8.32;;;14.30;99.90;;;;;;5050828;28;20371;-62
2022/09/24 07:53:05;;;;;;;10.57;8.45;;;14.30;99.90;;;;;;5050866;28;20040;-61
2022/09/24 07:55:30;;;;;;;12.00;9.73;;;14.40;99.90;;;;;;5050906;28;20041;-61
2022/09/24 07:57:56;;;;;;;11.13;9.93;;;14.40;99.90;;;;;;5042756;28;20037;-61
2022/09/24 08:00:23;;;;;;;13.32;9.68;;;14.40;99.90;;;;;;5050750;28;20055;-62
2022/09/24 08:02:50;;;;;;;11.25;9.43;;;14.40;99.90;;;;;;5049895;28;20048;-61
2022/09/24 08:05:16;;;;;;;12.05;9.57;;;14.50;99.90;;;;;;5050141;28;20032;-61
2022/09/24 08:07:49;;;;;;;13.73;10.00;;;14.50;99.90;;;;;;5050828;28;20115;-61
2022/09/24 08:10:15;;;;;;;14.60;10.43;;;14.60;99.90;;;;;;5050251;28;20060;-62
2022/09/24 08:12:41;;;;;;;12.85;10.50;;;14.60;99.90;;;;;;5050482;28;20099;-61
2022/09/24 08:15:07;;;;;;;14.13;11.77;;;14.60;99.90;;;;;;5050528;28;20399;-62
2022/09/24 08:17:33;;;;;;;14.27;12.30;;;14.60;99.90;;;;;;5051081;28;20047;-62
2022/09/24 08:19:59;;;;;;;14.85;13.18;;;14.60;99.90;;;;;;5053777;28;20073;-61
2022/09/24 08:22:25;;;;;;;13.40;11.85;;;14.60;99.90;;;;;;5053435;28;20430;-61
2022/09/24 08:24:51;;;;;;;15.40;12.32;;;14.70;99.90;;;;;;5053476;28;20036;-61
2022/09/24 08:27:19;;;;;;;13.30;11.38;;;14.70;99.90;;;;;;5052747;28;20037;-62
2022/09/24 08:29:45;;;;;;;15.38;11.27;;;14.70;99.90;;;;;;5053728;28;20339;-62
2022/09/24 08:32:12;;;;;;;13.68;9.27;;;14.80;99.90;;;;;;5053556;28;20052;-61
2022/09/24 08:34:39;;;;;;;12.23;10.18;;;14.80;99.90;;;;;;5053724;28;20091;-61
2022/09/24 08:37:05;;;;;;;11.65;9.18;;;14.80;99.90;;;;;;5053277;28;20097;-61
2022/09/24 08:39:32;;;;;;;12.02;9.63;;;14.90;99.90;;;;;;5054124;28;20119;-61
2022/09/24 08:42:04;;;;;;;13.80;9.30;;;14.80;99.90;;;;;;5053843;28;20033;-62
2022/09/24 08:47:32;;;;;;;13.38;9.20;;;14.80;99.90;;;;;;5053621;28;20048;-61
2022/09/24 08:50:30;;;;;;;15.40;9.10;;;14.90;99.90;;;;;;5054086;28;20123;-61
2022/09/24 08:53:10;;;;;;;12.65;9.45;;;14.90;99.90;;;;;;5048606;28;20037;-61
2022/09/24 08:55:41;;;;;;;14.43;9.35;;;15.00;99.90;;;;;;5052768;28;20481;-61
2022/09/24 08:58:16;;;;;;;13.95;8.95;;;15.00;99.90;;;;;;5052074;28;20041;-61
2022/09/24 09:01:02;;;;;;;14.13;9.40;;;15.10;99.90;;;;;;5053430;28;20186;-61
2022/09/24 09:03:57;;;;;;;13.80;7.80;;;15.10;99.90;;;;;;5053380;28;20362;-62
2022/09/24 09:06:41;;;;;;;;;;;15.20;99.90;;;;;;5052410;28;20114;-62
2022/09/24 09:09:25;;;;;;;12.80;7.53;;;15.20;99.90;;;;;;5052357;28;19916;-62
2022/09/24 09:11:55;;;;;;;;;;;15.20;99.90;;;;;;5053983;28;20044;-62
2022/09/24 09:14:40;;;;;;;14.70;8.07;;;15.20;99.90;;;;;;5053692;28;19927;-62
2022/09/24 09:17:17;;;;;;;15.05;7.50;;;15.30;99.90;;;;;;5053239;28;20037;-60
2022/09/24 09:19:52;;;;;;;14.60;6.43;;;15.30;99.90;;;;;;5053518;28;20040;-62
2022/09/24 09:22:22;;;;;;;11.07;6.40;;;15.40;99.90;;;;;;5053276;28;20040;-62
2022/09/24 09:24:50;;;;;;;12.65;5.50;;;15.40;99.90;;;;;;5053396;28;20032;-62
2022/09/24 09:27:18;;;;;;;12.38;5.28;;;15.40;99.90;;;;;;5052992;28;20033;-62
2022/09/24 09:29:50;;;;;;;11.20;4.72;;;15.50;99.90;;;;;;5052106;28;20489;-62
2022/09/24 09:32:25;;;;;;;13.25;3.58;;;15.60;99.90;;;;;;5053053;28;20435;-63
2022/09/24 09:35:03;;;;;;;15.90;3.30;;;15.60;99.90;;;;;;5053396;28;20076;-62
2022/09/24 09:37:42;;;;;;;9.88;3.15;;;15.70;99.90;;;;;;5053148;28;20099;-62
2022/09/24 09:40:26;;;;;;;13.90;3.53;;;15.70;99.90;;;;;;5053178;28;20044;-62
2022/09/24 09:42:58;;;;;;;10.32;2.85;;;15.60;99.90;;;;;;5046759;28;20450;-63
2022/09/24 09:46:01;;;;;;;12.13;2.80;;;15.70;99.90;;;;;;5052658;28;20044;-61
2022/09/24 09:48:40;;;;;;;11.40;3.05;;;15.70;99.90;;;;;;5052904;28;20037;-60
2022/09/24 09:51:12;;;;;;;10.77;2.65;;;15.70;99.90;;;;;;5052696;28;20041;-60
2022/09/24 09:53:38;;;;;;;10.98;3.00;;;15.70;99.90;;;;;;5068136;28;20029;-60
2022/09/24 09:56:06;;;;;;;12.38;2.58;;;15.70;99.90;;;;;;5052307;28;20040;-61
2022/09/24 09:58:38;;;;;;;10.45;2.38;;;15.80;99.90;;;;;;5051822;28;20338;-62
2022/09/24 10:01:14;;;;;;;8.65;2.63;;;15.80;99.90;;;;;;5052639;28;20045;-62
2022/09/24 10:03:46;;;;;;;14.00;2.88;;;15.80;99.90;;;;;;5051307;28;20141;-61
2022/09/24 10:06:21;;;;;;;11.18;2.53;;;15.80;99.90;;;;;;5051192;28;20040;-62
2022/09/24 10:08:46;;;;;;;7.32;1.80;;;15.80;99.90;;;;;;5052463;28;20064;-62
2022/09/24 10:11:15;;;;;;;11.80;2.53;;;15.80;99.90;;;;;;5051442;28;20466;-61
2022/09/24 10:13:41;;;;;;;8.90;2.30;;;15.80;99.90;;;;;;5051577;28;20105;-61
2022/09/24 10:16:09;;;;;;;8.50;2.25;;;15.80;99.90;;;;;;5048989;28;20119;-62
2022/09/24 10:18:35;;;;;;;7.43;1.70;;;15.80;99.90;;;;;;5050185;28;20045;-61
2022/09/24 10:21:08;;;;;;;9.65;2.30;;;15.90;99.90;;;;;;5050863;28;20630;-61
2022/09/24 10:23:36;;;;;;;8.00;1.90;;;15.90;99.90;;;;;;5050652;28;20048;-62
2022/09/24 10:26:03;;;;;;;8.20;2.08;;;15.90;99.90;;;;;;5049018;28;20479;-62
2022/09/24 10:31:22;;;;;;;5.85;1.70;;;16.00;99.90;;;;;;5050471;28;20036;-62
2022/09/24 10:33:51;;;;;;;9.15;2.30;;;16.10;99.90;;;;;;5046443;28;20536;-61
2022/09/24 10:36:19;;;;;;;4.95;1.75;;;16.10;99.90;;;;;;5048357;28;20469;-61
2022/09/24 10:38:45;;;;;;;6.47;2.00;;;16.10;99.90;;;;;;5049468;28;20366;-62
2022/09/24 10:41:27;;;;;;;10.90;2.00;;;16.20;99.90;;;;;;5050284;28;20455;-61
2022/09/24 10:43:54;;;;;;;5.45;1.85;;;16.20;99.90;;;;;;5050194;28;20334;-61
2022/09/24 10:46:38;;;;;;;9.80;2.00;;;16.30;99.90;;;;;;5051568;28;20426;-62
2022/09/24 10:49:09;;;;;;;6.47;2.90;;;16.30;99.90;;;;;;5048398;28;20355;-62
2022/09/24 10:51:50;;;;;;;6.93;2.05;;;16.20;99.90;;;;;;5051074;28;20045;-62
2022/09/24 10:54:48;;;;;;;6.50;1.85;;;16.30;99.90;;;;;;5048839;28;20548;-61
2022/09/24 10:57:53;;;;;;;7.35;2.10;;;16.40;99.90;;;;;;5050861;28;20033;-62
2022/09/24 11:00:35;;;;;;;5.00;1.60;;;16.40;99.90;;;;;;5041463;28;20476;-63
2022/09/24 11:03:10;;;;;;;7.82;1.60;;;16.40;99.90;;;;;;5051042;28;20048;-61
2022/09/24 11:05:48;;;;;;;9.15;1.88;;;16.40;99.90;;;;;;5051474;28;20114;-62
2022/09/24 11:08:29;;;;;;;8.18;3.25;;;16.50;99.90;;;;;;5049965;28;20045;-62
2022/09/24 11:11:23;;;;;;;9.88;2.33;;;16.40;99.90;;;;;;5050491;28;20056;-62
2022/09/24 11:14:27;;;;;;;7.32;2.63;;;16.50;99.90;;;;;;5050948;28;20087;-62
2022/09/24 11:17:21;;;;;;;4.72;1.33;;;16.40;99.90;;;;;;5049306;28;20037;-62
2022/09/24 11:20:14;;;;;;;5.38;2.08;;;16.50;99.90;;;;;;5049079;28;20094;-62
2022/09/24 11:22:55;;;;;;;6.70;1.70;;;16.40;99.90;;;;;;5050666;28;20041;-62
2022/09/24 11:25:46;;;;;;;5.00;1.52;;;16.50;99.90;;;;;;5039357;28;20371;-63
2022/09/24 11:28:36;;;;;;;4.35;1.42;;;16.50;99.90;;;;;;5051235;28;20481;-62
2022/09/24 11:31:17;;;;;;;4.50;1.40;;;16.60;99.90;;;;;;5032721;28;20361;-62
2022/09/24 11:34:15;;;;;;;7.97;2.13;;;16.50;99.90;;;;;;5049706;28;20048;-62
2022/09/24 11:37:25;;;;;;;4.95;1.30;;;16.50;99.90;;;;;;5049170;28;20045;-61
2022/09/24 11:40:22;;;;;;;5.25;1.60;;;16.50;99.90;;;;;;5049294;28;20045;-63
2022/09/24 11:43:17;;;;;;;5.38;1.70;;;16.60;99.90;;;;;;5063649;28;20071;-61
2022/09/24 11:46:01;;;;;;;;;;;16.60;99.90;;;;;;5050623;28;20037;-62
2022/09/24 11:49:03;;;;;;;7.22;2.15;;;16.50;99.90;;;;;;5049331;28;19920;-62
2022/09/24 11:52:30;;;;;;;8.98;2.58;;;16.40;99.90;;;;;;5049119;28;20136;-62
2022/09/24 11:55:17;;;;;;;5.30;1.55;;;16.40;99.90;;;;;;5011703;28;20104;-62
2022/09/24 11:58:11;;;;;;;5.47;2.13;;;16.30;99.90;;;;;;5019610;28;20483;-62
2022/09/24 12:00:43;;;;;;;8.82;2.20;;;16.30;99.90;;;;;;5050710;28;20569;-62
2022/09/24 12:03:18;;;;;;;6.25;1.75;;;16.40;99.90;;;;;;5053311;28;20043;-61
2022/09/24 12:05:55;;;;;;;7.03;1.65;;;16.30;99.90;;;;;;5053793;28;20515;-62
2022/09/24 12:08:37;;;;;;;5.30;1.58;;;16.30;99.90;;;;;;5041939;28;20369;-62
2022/09/24 12:11:29;;;;;;;6.90;1.40;;;16.30;99.90;;;;;;5067860;28;20072;-62
2022/09/24 12:14:06;;;;;;;7.50;1.85;;;16.30;99.90;;;;;;5060889;28;20045;-62
2022/09/24 12:16:37;;;;;;;5.30;1.50;;;16.30;99.90;;;;;;5069761;28;20131;-62
2022/09/24 12:19:23;;;;;;;5.43;1.55;;;16.40;99.90;;;;;;5072215;28;20048;-62
2022/09/24 12:21:51;;;;;;;7.03;1.83;;;16.40;99.90;;;;;;5047250;28;20662;-62
2022/09/24 12:24:33;;;;;;;6.45;1.40;;;16.50;99.90;;;;;;5072601;28;20052;-62
2022/09/24 12:27:02;;;;;;;7.95;1.75;;;16.40;99.90;;;;;;5066949;28;20052;-62
2022/09/24 12:32:56;;;;;;;6.55;1.48;;;16.40;99.90;;;;;;5070935;28;20169;-62
2022/09/24 12:35:30;;;;;;;7.70;1.80;;;16.40;99.90;;;;;;5068323;28;20048;-64
2022/09/24 12:38:31;;;;;;;8.50;2.10;;;16.40;99.90;;;;;;5051195;28;20052;-61
2022/09/24 12:41:13;;;;;;;6.97;1.80;;;16.40;99.90;;;;;;5048188;28;20665;-62
2022/09/24 12:43:46;;;;;;;4.05;1.63;;;16.50;99.90;;;;;;5068435;28;20052;-62
2022/09/24 12:46:20;;;;;;;5.82;1.58;;;16.40;99.90;;;;;;5052040;28;20083;-61
2022/09/24 12:48:47;;;;;;;;;;;16.40;99.90;;;;;;5053097;28;20370;-62
2022/09/24 12:51:13;;;;;;;5.90;2.28;;;16.40;99.90;;;;;;5052002;28;19931;-61
2022/09/24 12:53:53;;;;;;;6.43;2.25;;;16.40;99.90;;;;;;5052359;28;20049;-61
2022/09/24 12:56:25;;;;;;;5.00;1.55;;;16.40;99.90;;;;;;5042022;28;20359;-62
2022/09/24 12:58:51;;;;;;;6.10;1.75;;;16.00;99.90;;;;;;5052149;28;20045;-61
2022/09/24 13:01:22;;;;;;;6.15;1.67;;;15.90;99.90;;;;;;5052014;28;20041;-61
2022/09/24 13:04:02;;;;;;;11.80;2.08;;;16.00;99.90;;;;;;5051819;28;20048;-61
2022/09/24 13:06:36;;;;;;;7.85;1.58;;;15.80;99.90;;;;;;5042785;28;20040;-62
2022/09/24 13:09:22;;;;;;;8.65;1.83;;;15.70;99.90;;;;;;5053503;28;20033;-62
2022/09/24 13:11:48;;;;;;;7.28;1.77;;;15.60;99.90;;;;;;5027430;28;20037;-62